Time;durP1;ratioP1;P1;durP2;ratioP2;P2;SDS_P1;SDS_P2;PMS_P1;PMS_P2;Temp;Humidity;BMP_temperature;BMP_pressure;BME280_temperature;BME280_humidity;BME280_pressure;Samples;Min_cycle;Max_cycle;Signal;HPM_P1;HPM_P2
2023/07/01 00:00:52;;;;;;;8.20;5.18;;;15.20;99.90;;;;;;4989023;28;20041;-50
2023/07/01 00:03:18;;;;;;;10.20;5.55;;;15.20;99.90;;;;;;4989629;28;20409;-51
2023/07/01 00:05:44;;;;;;;7.40;4.78;;;15.20;99.90;;;;;;4988923;28;20022;-49
2023/07/01 00:08:09;;;;;;;9.50;5.07;;;15.10;99.90;;;;;;4988782;28;20462;-50
2023/07/01 00:10:35;;;;;;;6.25;5.45;;;15.10;99.90;;;;;;4989046;28;20411;-48
2023/07/01 00:13:00;;;;;;;8.13;5.53;;;15.00;99.90;;;;;;4988769;28;20403;-51
2023/07/01 00:15:26;;;;;;;11.98;6.22;;;15.00;99.90;;;;;;4988954;28;20027;-49
2023/07/01 00:17:54;;;;;;;6.93;5.50;;;15.00;99.90;;;;;;4988866;28;20471;-49
2023/07/01 00:20:22;;;;;;;9.07;6.25;;;14.90;99.90;;;;;;4988988;28;20030;-49
2023/07/01 00:22:48;;;;;;;9.02;5.88;;;14.90;99.90;;;;;;4988961;28;20156;-48
2023/07/01 00:25:14;;;;;;;8.90;6.15;;;14.80;99.90;;;;;;4971393;28;20491;-50
2023/07/01 00:27:39;;;;;;;14.48;6.43;;;14.80;99.90;;;;;;4988609;28;20035;-49
2023/07/01 00:30:05;;;;;;;10.95;6.95;;;14.70;99.90;;;;;;4988703;28;20373;-49
2023/07/01 00:32:31;;;;;;;11.05;7.43;;;14.70;99.90;;;;;;4988564;28;20149;-51
2023/07/01 00:34:56;;;;;;;10.52;6.40;;;14.60;99.90;;;;;;4988679;28;20027;-47
2023/07/01 00:37:22;;;;;;;8.85;6.47;;;14.60;99.90;;;;;;4987510;28;20046;-50
2023/07/01 00:39:47;;;;;;;10.10;7.25;;;14.60;99.90;;;;;;4988527;28;20026;-50
2023/07/01 00:42:13;;;;;;;15.38;7.88;;;14.60;99.90;;;;;;4988699;28;20037;-50
2023/07/01 00:44:39;;;;;;;12.80;7.32;;;14.50;99.90;;;;;;4987355;28;20109;-50
2023/07/01 00:47:05;;;;;;;10.38;7.25;;;14.50;99.90;;;;;;4988128;28;20035;-49
2023/07/01 00:49:31;;;;;;;13.93;8.20;;;14.50;99.90;;;;;;4988892;28;20294;-47
2023/07/01 00:51:57;;;;;;;11.95;8.75;;;14.40;99.90;;;;;;4970793;28;20184;-48
2023/07/01 00:54:24;;;;;;;16.20;9.10;;;14.40;99.90;;;;;;4971237;28;20540;-50
2023/07/01 00:56:49;;;;;;;11.82;7.90;;;14.30;99.90;;;;;;4987593;28;20407;-48
2023/07/01 00:59:16;;;;;;;13.20;8.23;;;14.30;99.90;;;;;;4988286;28;20030;-48
2023/07/01 01:01:50;;;;;;;11.90;8.38;;;14.30;99.90;;;;;;4988116;28;20472;-50
2023/07/01 01:04:29;;;;;;;13.85;9.10;;;14.30;99.90;;;;;;4970590;28;20023;-48
2023/07/01 01:07:05;;;;;;;13.07;8.20;;;14.20;99.90;;;;;;4987868;28;20030;-50
2023/07/01 01:09:41;;;;;;;15.07;9.95;;;14.20;99.90;;;;;;4987879;28;20123;-48
2023/07/01 01:12:10;;;;;;;15.55;8.80;;;14.20;99.90;;;;;;4987891;28;20499;-52
2023/07/01 01:14:38;;;;;;;12.35;8.52;;;14.20;99.90;;;;;;4987853;28;20041;-48
2023/07/01 01:17:09;;;;;;;14.43;8.30;;;14.20;99.90;;;;;;4987174;28;20609;-50
2023/07/01 01:19:45;;;;;;;14.38;8.88;;;14.20;99.90;;;;;;4987716;28;20038;-50
2023/07/01 01:22:21;;;;;;;11.20;8.77;;;14.10;99.90;;;;;;4987800;28;20032;-47
2023/07/01 01:24:53;;;;;;;12.40;8.60;;;14.20;99.90;;;;;;4987866;28;20023;-48
2023/07/01 01:27:24;;;;;;;13.60;8.48;;;14.20;99.90;;;;;;4987058;28;20388;-49
2023/07/01 01:29:50;;;;;;;12.18;8.07;;;14.10;99.90;;;;;;4987783;28;20112;-47
2023/07/01 01:32:15;;;;;;;11.15;8.55;;;14.10;99.90;;;;;;4970087;28;20022;-48
2023/07/01 01:34:41;;;;;;;12.82;7.88;;;14.10;99.90;;;;;;4987834;28;20054;-50
2023/07/01 01:37:18;;;;;;;15.60;9.13;;;14.10;99.90;;;;;;4987518;28;20042;-50
2023/07/01 01:39:49;;;;;;;11.50;7.85;;;14.10;99.90;;;;;;4969956;28;20045;-48
2023/07/01 01:42:23;;;;;;;12.70;8.57;;;14.10;99.90;;;;;;4970119;28;20487;-48
2023/07/01 01:44:52;;;;;;;13.63;9.13;;;14.10;99.90;;;;;;4987156;28;20031;-47
2023/07/01 01:47:29;;;;;;;15.00;8.27;;;14.10;99.90;;;;;;4986958;28;20109;-47
2023/07/01 01:50:00;;;;;;;11.20;8.13;;;14.10;99.90;;;;;;4987484;28;20046;-48
2023/07/01 01:52:26;;;;;;;12.00;8.00;;;14.20;99.90;;;;;;4987538;28;20049;-48
2023/07/01 01:54:54;;;;;;;14.15;7.85;;;14.10;99.90;;;;;;4986969;28;20022;-47
2023/07/01 01:57:20;;;;;;;12.73;7.65;;;14.10;99.90;;;;;;4987474;28;20026;-51
2023/07/01 01:59:46;;;;;;;10.38;7.20;;;14.10;99.90;;;;;;4987640;28;20023;-47
2023/07/01 02:02:12;;;;;;;9.70;7.85;;;14.10;99.90;;;;;;4987223;28;20050;-48
2023/07/01 02:04:38;;;;;;;12.35;7.38;;;14.00;99.90;;;;;;4969766;28;20460;-48
2023/07/01 02:07:04;;;;;;;12.63;7.75;;;14.00;99.90;;;;;;4987298;28;20036;-47
2023/07/01 02:09:29;;;;;;;14.90;7.70;;;14.00;99.90;;;;;;4987184;28;20026;-48
2023/07/01 02:11:55;;;;;;;13.55;7.60;;;14.00;99.90;;;;;;4987199;28;20030;-47
2023/07/01 02:14:22;;;;;;;19.25;7.65;;;14.00;99.90;;;;;;4987064;28;20555;-48
2023/07/01 02:16:49;;;;;;;12.80;7.53;;;13.90;99.90;;;;;;4986756;28;20572;-47
2023/07/01 02:19:15;;;;;;;13.15;7.65;;;13.90;99.90;;;;;;4969645;28;20026;-46
2023/07/01 02:21:40;;;;;;;10.52;7.00;;;13.80;99.90;;;;;;4986721;28;20490;-50
2023/07/01 02:24:06;;;;;;;9.63;7.13;;;13.80;99.90;;;;;;4987167;28;20022;-50
2023/07/01 02:26:31;;;;;;;9.32;7.20;;;13.80;99.90;;;;;;4985990;28;20106;-48
2023/07/01 02:28:57;;;;;;;13.85;6.70;;;13.80;99.90;;;;;;4967847;28;20523;-47
2023/07/01 02:31:22;;;;;;;9.10;7.25;;;13.80;99.90;;;;;;4978100;28;20041;-49
2023/07/01 02:33:53;;;;;;;11.75;6.95;;;13.80;99.90;;;;;;4976064;28;20026;-48
2023/07/01 02:36:19;;;;;;;9.63;6.78;;;13.80;99.90;;;;;;4979157;28;20026;-47
2023/07/01 02:38:44;;;;;;;13.65;6.82;;;13.80;99.90;;;;;;4986664;28;20061;-50
2023/07/01 02:41:10;;;;;;;9.57;5.80;;;13.80;99.90;;;;;;4969365;28;20025;-48
2023/07/01 02:43:35;;;;;;;9.35;5.45;;;13.90;99.90;;;;;;4987107;28;20031;-48
2023/07/01 02:46:01;;;;;;;10.32;5.68;;;13.90;99.90;;;;;;4986816;28;20322;-47
2023/07/01 02:48:26;;;;;;;7.95;5.82;;;13.90;99.90;;;;;;4986167;28;20288;-51
2023/07/01 02:50:52;;;;;;;10.38;5.93;;;14.00;99.90;;;;;;4987070;28;20109;-51
2023/07/01 02:53:20;;;;;;;10.60;5.32;;;14.00;99.90;;;;;;4980775;28;20034;-50
2023/07/01 02:55:46;;;;;;;12.60;6.22;;;14.10;99.90;;;;;;4977210;28;20388;-48
2023/07/01 02:58:11;;;;;;;8.13;5.90;;;14.10;99.90;;;;;;4976748;28;20084;-49
2023/07/01 03:00:37;;;;;;;9.73;5.22;;;14.10;99.90;;;;;;4975888;28;20019;-47
2023/07/01 03:03:08;;;;;;;11.63;5.10;;;14.10;99.90;;;;;;4977232;28;20042;-48
2023/07/01 03:05:35;;;;;;;7.28;4.88;;;14.10;99.90;;;;;;4959630;28;20023;-48
2023/07/01 03:08:00;;;;;;;7.20;5.07;;;14.10;99.90;;;;;;4966439;28;20030;-51
2023/07/01 03:10:26;;;;;;;7.38;4.90;;;14.10;99.90;;;;;;4985106;28;20035;-50
2023/07/01 03:12:52;;;;;;;9.02;5.10;;;14.20;99.90;;;;;;4983364;28;20097;-47
2023/07/01 03:15:18;;;;;;;11.80;4.85;;;14.20;99.90;;;;;;4972176;28;20030;-49
2023/07/01 03:17:43;;;;;;;13.82;4.60;;;14.20;99.90;;;;;;4971468;28;20029;-49
2023/07/01 03:20:22;;;;;;;7.90;4.50;;;14.30;99.90;;;;;;4989764;28;20022;-47
2023/07/01 03:22:49;;;;;;;10.40;4.57;;;14.30;99.90;;;;;;4989671;28;20498;-48
2023/07/01 03:25:15;;;;;;;6.30;4.18;;;14.30;99.90;;;;;;4990081;28;20023;-48
2023/07/01 03:27:41;;;;;;;8.45;4.90;;;14.40;99.90;;;;;;4971343;28;20029;-47
2023/07/01 03:30:13;;;;;;;7.65;3.58;;;14.40;99.90;;;;;;4959417;28;20030;-48
2023/07/01 03:32:45;;;;;;;9.20;4.50;;;14.40;99.90;;;;;;4987064;28;20031;-48
2023/07/01 03:35:12;;;;;;;9.77;4.20;;;14.50;99.90;;;;;;4997093;28;20122;-48
2023/07/01 03:37:40;;;;;;;12.07;4.47;;;14.50;99.90;;;;;;4979560;28;20034;-50
2023/07/01 03:40:12;;;;;;;7.70;5.30;;;14.50;99.90;;;;;;4989443;28;20022;-50
2023/07/01 03:42:41;;;;;;;5.25;3.83;;;14.60;99.90;;;;;;4975220;28;20439;-48
2023/07/01 03:45:09;;;;;;;6.53;3.97;;;14.60;99.90;;;;;;4987133;28;20380;-47
2023/07/01 03:47:39;;;;;;;4.70;3.75;;;14.70;99.90;;;;;;4988837;28;20018;-50
2023/07/01 03:50:08;;;;;;;10.18;3.92;;;14.70;99.90;;;;;;4971871;28;20026;-47
2023/07/01 03:52:38;;;;;;;7.90;3.80;;;14.70;99.90;;;;;;4989045;28;20041;-48
2023/07/01 03:55:08;;;;;;;6.25;3.38;;;14.70;99.90;;;;;;4989193;28;20036;-49
2023/07/01 03:57:35;;;;;;;5.80;3.45;;;14.70;99.90;;;;;;4971135;28;20509;-48
2023/07/01 04:00:08;;;;;;;5.95;3.70;;;14.80;99.90;;;;;;4989356;28;20110;-47
2023/07/01 04:02:37;;;;;;;13.52;3.88;;;14.80;99.90;;;;;;4971876;28;20029;-47
2023/07/01 04:05:10;;;;;;;10.20;2.97;;;14.80;99.90;;;;;;4988703;28;20023;-48
2023/07/01 04:07:43;;;;;;;9.73;3.80;;;14.80;99.90;;;;;;4988364;28;20022;-48
2023/07/01 04:10:10;;;;;;;8.95;3.42;;;14.90;99.90;;;;;;4989154;28;20026;-49
2023/07/01 04:12:37;;;;;;;11.77;3.38;;;14.90;99.90;;;;;;4989041;28;20025;-52
2023/07/01 04:15:03;;;;;;;7.38;3.38;;;15.00;99.90;;;;;;4988514;28;20079;-49
2023/07/01 04:17:30;;;;;;;7.35;3.10;;;15.10;99.90;;;;;;4970761;28;20511;-47
2023/07/01 04:19:56;;;;;;;5.50;3.17;;;15.20;99.90;;;;;;4988464;28;20026;-49
2023/07/01 04:22:23;;;;;;;5.95;3.22;;;15.30;99.90;;;;;;4989039;28;20510;-49
2023/07/01 04:24:48;;;;;;;4.60;2.88;;;15.30;99.90;;;;;;4976543;28;20434;-47
2023/07/01 04:27:14;;;;;;;5.95;2.80;;;15.30;99.90;;;;;;4970665;28;20023;-47
2023/07/01 04:29:39;;;;;;;8.70;3.45;;;15.40;99.90;;;;;;4988239;28;20034;-46
2023/07/01 04:32:05;;;;;;;6.70;2.60;;;15.40;99.90;;;;;;4988966;28;20110;-47
2023/07/01 04:34:30;;;;;;;5.65;2.95;;;15.40;99.90;;;;;;4988349;28;20114;-48
2023/07/01 04:36:56;;;;;;;6.90;2.80;;;15.50;99.90;;;;;;4985827;28;20619;-49
2023/07/01 04:39:23;;;;;;;6.28;3.08;;;15.50;99.90;;;;;;4984088;28;20113;-49
2023/07/01 04:41:49;;;;;;;3.42;2.28;;;15.50;99.90;;;;;;4988380;28;20022;-50
2023/07/01 04:44:15;;;;;;;5.38;3.00;;;15.60;99.90;;;;;;4987660;28;20038;-47
2023/07/01 04:46:40;;;;;;;3.92;2.83;;;15.60;99.90;;;;;;4974762;28;20117;-48
2023/07/01 04:49:08;;;;;;;10.32;2.72;;;15.60;99.90;;;;;;4967305;28;20606;-48
2023/07/01 04:51:34;;;;;;;4.90;2.67;;;15.70;99.90;;;;;;4986820;28;20518;-48
2023/07/01 04:54:01;;;;;;;5.72;3.10;;;15.70;99.90;;;;;;4967664;28;20039;-48
2023/07/01 04:56:26;;;;;;;8.20;3.20;;;15.80;99.90;;;;;;4972085;28;20025;-48
2023/07/01 04:58:52;;;;;;;8.30;3.25;;;15.80;99.90;;;;;;4987576;28;20030;-48
2023/07/01 05:01:18;;;;;;;6.57;3.42;;;15.90;99.90;;;;;;4988470;28;20032;-47
2023/07/01 05:03:43;;;;;;;6.00;3.22;;;15.90;99.90;;;;;;4988137;28;20097;-48
2023/07/01 05:06:09;;;;;;;9.60;3.10;;;15.90;99.90;;;;;;4987099;28;20487;-49
2023/07/01 05:08:34;;;;;;;10.45;3.05;;;15.90;99.90;;;;;;4987954;28;20372;-47
2023/07/01 05:11:00;;;;;;;6.22;2.90;;;16.00;99.90;;;;;;4987871;28;20555;-47
2023/07/01 05:13:25;;;;;;;7.53;2.97;;;16.10;99.90;;;;;;4988162;28;20030;-50
2023/07/01 05:15:51;;;;;;;7.20;3.08;;;16.20;99.90;;;;;;4987712;28;20061;-50
2023/07/01 05:18:16;;;;;;;8.52;2.78;;;16.30;99.90;;;;;;4970129;28;20045;-48
2023/07/01 05:20:42;;;;;;;11.80;3.55;;;16.40;99.90;;;;;;4987992;28;20018;-48
2023/07/01 05:23:07;;;;;;;6.78;2.50;;;16.50;99.90;;;;;;4988316;28;20491;-51
2023/07/01 05:25:33;;;;;;;7.60;2.72;;;16.50;99.90;;;;;;5001876;28;20062;-50
2023/07/01 05:27:58;;;;;;;4.00;2.25;;;16.60;99.90;;;;;;4987890;28;20373;-50
2023/07/01 05:30:24;;;;;;;8.88;2.92;;;16.60;99.90;;;;;;4969428;28;20053;-50
2023/07/01 05:32:49;;;;;;;5.50;2.75;;;16.70;99.90;;;;;;4987684;28;20037;-48
2023/07/01 05:35:15;;;;;;;4.35;2.83;;;16.80;99.90;;;;;;4987627;28;20045;-48
2023/07/01 05:37:40;;;;;;;8.90;3.40;;;16.80;99.90;;;;;;4987141;28;20031;-48
2023/07/01 05:40:07;;;;;;;4.10;2.85;;;16.80;99.90;;;;;;4987719;28;20556;-51
2023/07/01 05:42:32;;;;;;;4.97;2.78;;;16.90;99.90;;;;;;4987833;28;20023;-51
2023/07/01 05:44:58;;;;;;;5.85;2.40;;;16.90;99.90;;;;;;4970099;28;20076;-51
2023/07/01 05:47:23;;;;;;;10.20;2.65;;;17.00;99.90;;;;;;4987072;28;20057;-48
2023/07/01 05:49:49;;;;;;;3.90;2.70;;;17.10;99.90;;;;;;4987917;28;20084;-47
2023/07/01 05:52:14;;;;;;;5.20;3.28;;;17.10;99.90;;;;;;4987689;28;20042;-48
2023/07/01 05:54:40;;;;;;;6.82;2.72;;;17.30;99.90;;;;;;4970420;28;20018;-47
2023/07/01 05:57:06;;;;;;;5.43;2.30;;;17.40;99.90;;;;;;4986665;28;20106;-48
2023/07/01 05:59:31;;;;;;;4.47;2.58;;;17.60;99.90;;;;;;4987431;28;20226;-47
2023/07/01 06:01:57;;;;;;;4.63;2.90;;;17.70;99.90;;;;;;4987338;28;20034;-47
2023/07/01 06:04:22;;;;;;;3.30;2.60;;;17.90;99.90;;;;;;4987280;28;20027;-48
2023/07/01 06:06:48;;;;;;;6.93;2.95;;;18.00;99.90;;;;;;4987081;28;20030;-48
2023/07/01 06:09:15;;;;;;;5.05;2.72;;;18.10;99.90;;;;;;4987259;28;20058;-46
2023/07/01 06:11:41;;;;;;;7.05;2.40;;;18.30;99.90;;;;;;4987199;28;20035;-48
2023/07/01 06:14:07;;;;;;;6.53;2.85;;;18.40;99.90;;;;;;5030191;28;20285;-47
2023/07/01 06:16:32;;;;;;;4.53;2.50;;;18.50;99.90;;;;;;5080027;28;20059;-50
2023/07/01 06:18:58;;;;;;;4.25;2.38;;;18.70;99.90;;;;;;4980163;28;20030;-46
2023/07/01 06:21:23;;;;;;;5.95;2.55;;;18.80;99.90;;;;;;4982351;28;20375;-48
2023/07/01 06:23:49;;;;;;;6.28;2.80;;;18.90;99.90;;;;;;4987107;28;20026;-48
2023/07/01 06:26:14;;;;;;;5.30;2.13;;;19.00;99.90;;;;;;4986513;28;20049;-50
2023/07/01 06:28:40;;;;;;;3.58;2.08;;;18.90;99.90;;;;;;4986385;28;20027;-48
2023/07/01 06:31:05;;;;;;;6.25;2.95;;;19.00;99.90;;;;;;4987027;28;20148;-48
2023/07/01 06:33:37;;;;;;;5.70;2.80;;;19.20;99.90;;;;;;4987274;28;20498;-47
2023/07/01 06:36:02;;;;;;;4.13;2.10;;;19.20;99.90;;;;;;4987147;28;20033;-47
2023/07/01 06:38:28;;;;;;;9.23;2.50;;;19.20;99.60;;;;;;4967875;28;20031;-48
2023/07/01 06:40:53;;;;;;;6.53;2.63;;;19.30;99.90;;;;;;4987001;28;20023;-48
2023/07/01 06:43:19;;;;;;;8.27;3.17;;;19.30;99.40;;;;;;4989259;28;20027;-47
2023/07/01 06:45:44;;;;;;;4.82;2.30;;;19.40;99.30;;;;;;4990035;28;20030;-49
2023/07/01 06:48:10;;;;;;;5.57;2.85;;;19.40;99.40;;;;;;4989655;28;20038;-48
2023/07/01 06:50:36;;;;;;;4.10;2.38;;;19.40;99.60;;;;;;4989955;28;20107;-47
2023/07/01 06:53:03;;;;;;;6.47;2.20;;;19.40;99.10;;;;;;4990103;28;20042;-47
2023/07/01 06:55:28;;;;;;;4.00;2.35;;;19.50;99.90;;;;;;4990473;28;20054;-47
2023/07/01 06:57:54;;;;;;;4.90;1.98;;;19.50;99.40;;;;;;4989232;28;20671;-50
2023/07/01 07:00:19;;;;;;;7.05;2.50;;;19.60;99.30;;;;;;4990294;28;20054;-48
2023/07/01 07:02:45;;;;;;;5.10;2.90;;;19.80;99.40;;;;;;4990336;28;20054;-49
2023/07/01 07:05:10;;;;;;;5.80;2.50;;;19.90;98.70;;;;;;4989742;28;20048;-47
2023/07/01 07:07:36;;;;;;;6.25;2.38;;;20.00;99.10;;;;;;4989779;28;20049;-48
2023/07/01 07:10:03;;;;;;;3.08;2.10;;;20.00;99.00;;;;;;4989486;28;20483;-48
2023/07/01 07:12:28;;;;;;;7.38;2.33;;;20.10;98.70;;;;;;4989786;28;20357;-49
2023/07/01 07:14:54;;;;;;;5.25;2.22;;;20.30;99.00;;;;;;4989551;28;20033;-48
2023/07/01 07:17:19;;;;;;;5.15;2.38;;;20.50;99.10;;;;;;4989077;28;20041;-47
2023/07/01 07:19:45;;;;;;;5.95;2.63;;;20.60;98.30;;;;;;4988242;28;20038;-50
2023/07/01 07:22:10;;;;;;;5.00;2.30;;;20.70;98.30;;;;;;4989505;28;20043;-49
2023/07/01 07:24:36;;;;;;;7.95;2.63;;;20.70;97.60;;;;;;4989623;28;20026;-51
2023/07/01 07:27:02;;;;;;;5.65;2.45;;;20.70;97.60;;;;;;4988924;28;20038;-50
2023/07/01 07:29:28;;;;;;;9.77;2.80;;;20.90;98.20;;;;;;4988744;28;20398;-48
2023/07/01 07:31:55;;;;;;;7.90;2.60;;;20.80;97.20;;;;;;4971847;28;20037;-48
2023/07/01 07:34:21;;;;;;;5.90;2.30;;;20.90;97.70;;;;;;4989589;28;20075;-48
2023/07/01 07:36:46;;;;;;;3.50;2.15;;;21.00;97.60;;;;;;4989058;28;20109;-50
2023/07/01 07:39:14;;;;;;;3.83;2.58;;;21.20;97.50;;;;;;4989253;28;20113;-49
2023/07/01 07:41:41;;;;;;;5.20;2.35;;;21.30;97.00;;;;;;4971014;28;20050;-49
2023/07/01 07:44:06;;;;;;;3.97;2.05;;;21.40;96.80;;;;;;4989234;28;20444;-49
2023/07/01 07:46:33;;;;;;;3.40;2.60;;;21.40;96.90;;;;;;4989152;28;20031;-51
2023/07/01 07:48:58;;;;;;;4.53;2.42;;;21.60;97.20;;;;;;4988566;28;20030;-50
2023/07/01 07:51:24;;;;;;;9.15;2.30;;;21.60;96.20;;;;;;4988850;28;20065;-51
2023/07/01 07:53:49;;;;;;;5.22;2.58;;;21.70;96.00;;;;;;4988641;28;20030;-48
2023/07/01 07:56:15;;;;;;;3.78;2.10;;;21.70;95.30;;;;;;4988886;28;20026;-50
2023/07/01 07:58:40;;;;;;;7.20;2.38;;;22.00;95.80;;;;;;4988710;28;20492;-51
2023/07/01 08:01:06;;;;;;;6.47;2.45;;;22.10;94.40;;;;;;4988936;28;20031;-48
2023/07/01 08:03:31;;;;;;;3.83;2.40;;;22.30;94.10;;;;;;4989035;28;20073;-49
2023/07/01 08:05:57;;;;;;;6.97;2.58;;;22.40;94.30;;;;;;4989210;28;20022;-49
2023/07/01 08:08:23;;;;;;;12.45;3.25;;;22.30;92.70;;;;;;4988421;28;20057;-50
2023/07/01 08:10:48;;;;;;;4.10;2.53;;;22.20;93.40;;;;;;4988977;28;20022;-50
2023/07/01 08:13:15;;;;;;;5.90;2.63;;;22.30;92.60;;;;;;4988504;28;20403;-49
2023/07/01 08:15:42;;;;;;;3.58;2.45;;;22.30;92.30;;;;;;4971536;28;20041;-48
2023/07/01 08:18:08;;;;;;;4.10;2.33;;;22.50;92.10;;;;;;4991336;28;20497;-50
2023/07/01 08:20:34;;;;;;;4.85;2.67;;;22.50;91.70;;;;;;5091019;28;20020;-49
2023/07/01 08:22:59;;;;;;;5.65;2.60;;;22.60;91.40;;;;;;5015792;28;20045;-49
2023/07/01 08:25:25;;;;;;;6.35;2.80;;;22.30;91.40;;;;;;4988242;28;20030;-51
2023/07/01 08:27:50;;;;;;;5.47;2.40;;;22.20;91.10;;;;;;4970723;28;20114;-48
2023/07/01 08:30:16;;;;;;;3.95;2.53;;;22.20;91.20;;;;;;4971125;28;20368;-51
2023/07/01 08:32:42;;;;;;;6.70;2.45;;;21.90;92.00;;;;;;4988389;28;20061;-50
2023/07/01 08:35:08;;;;;;;7.38;2.60;;;21.70;92.10;;;;;;4987901;28;20448;-49
2023/07/01 08:37:34;;;;;;;3.67;2.28;;;21.80;92.30;;;;;;4987512;28;20036;-51
2023/07/01 08:40:00;;;;;;;7.22;2.40;;;21.80;92.40;;;;;;4988518;28;20097;-51
2023/07/01 08:42:50;;;;;;;4.80;2.15;;;21.90;92.50;;;;;;5003381;28;20113;-51
2023/07/01 08:45:16;;;;;;;3.13;2.15;;;21.70;92.30;;;;;;4980804;28;20034;-51
2023/07/01 08:47:42;;;;;;;3.72;2.10;;;21.70;92.10;;;;;;4996030;28;20369;-49
2023/07/01 08:50:08;;;;;;;5.40;2.40;;;21.70;91.70;;;;;;4995139;28;20488;-49
2023/07/01 08:52:44;;;;;;;8.07;2.35;;;21.70;91.80;;;;;;4977026;28;20042;-51
2023/07/01 08:55:11;;;;;;;5.07;2.40;;;21.60;91.50;;;;;;5023731;28;20500;-48
2023/07/01 08:57:40;;;;;;;4.10;2.53;;;21.50;92.10;;;;;;5006365;28;20436;-48
2023/07/01 09:00:12;;;;;;;6.13;2.30;;;21.50;92.20;;;;;;4999639;28;20235;-48
2023/07/01 09:02:39;;;;;;;4.10;1.98;;;21.40;93.00;;;;;;4990835;28;20323;-50
2023/07/01 09:05:06;;;;;;;7.88;3.03;;;21.10;92.30;;;;;;5061110;28;20081;-49
2023/07/01 09:07:32;;;;;;;5.03;2.50;;;20.80;92.50;;;;;;4988092;28;20434;-48
2023/07/01 09:10:00;;;;;;;5.28;2.40;;;20.70;93.30;;;;;;4988068;28;20106;-49
2023/07/01 09:12:27;;;;;;;6.25;2.63;;;20.80;92.80;;;;;;4988272;28;20479;-50
2023/07/01 09:14:59;;;;;;;3.92;2.00;;;20.70;93.40;;;;;;4988189;28;20438;-50
2023/07/01 09:17:31;;;;;;;3.70;2.20;;;20.70;93.30;;;;;;4987629;28;20025;-49
2023/07/01 09:20:05;;;;;;;3.80;2.00;;;20.70;93.50;;;;;;4987919;28;20022;-51
2023/07/01 09:22:31;;;;;;;4.57;2.15;;;20.80;92.80;;;;;;4988258;28;20106;-47
2023/07/01 09:24:57;;;;;;;5.45;2.38;;;21.00;93.40;;;;;;4988078;28;20032;-49
2023/07/01 09:27:46;;;;;;;5.68;2.38;;;21.00;92.40;;;;;;4987653;28;20023;-49
2023/07/01 09:30:24;;;;;;;5.65;2.28;;;21.00;92.40;;;;;;4970121;28;20030;-50
2023/07/01 09:32:51;;;;;;;5.38;2.10;;;21.00;92.50;;;;;;4987876;28;20034;-48
2023/07/01 09:35:16;;;;;;;7.40;2.28;;;21.00;93.00;;;;;;4987928;28;20023;-51
2023/07/01 09:37:43;;;;;;;5.28;2.28;;;21.00;92.50;;;;;;5002295;28;20486;-48
2023/07/01 09:40:35;;;;;;;3.45;2.22;;;21.00;93.10;;;;;;4990510;28;20550;-49
2023/07/01 09:43:01;;;;;;;7.32;2.75;;;21.00;93.70;;;;;;4987065;28;20034;-49
2023/07/01 09:45:26;;;;;;;3.78;2.30;;;21.10;92.90;;;;;;4988941;28;20067;-49
2023/07/01 09:47:52;;;;;;;3.78;2.38;;;21.10;93.10;;;;;;4986756;28;20029;-50
2023/07/01 09:50:28;;;;;;;7.90;3.08;;;21.00;92.90;;;;;;4986266;28;20019;-48
2023/07/01 09:52:55;;;;;;;5.22;2.60;;;21.00;92.80;;;;;;4986274;28;20662;-48
2023/07/01 09:55:21;;;;;;;6.55;2.67;;;21.10;93.70;;;;;;4986304;28;20476;-49
2023/07/01 09:57:47;;;;;;;4.72;2.60;;;21.30;93.30;;;;;;4986201;28;20331;-49
2023/07/01 10:00:15;;;;;;;4.82;2.92;;;21.40;93.00;;;;;;4987011;28;20095;-51
2023/07/01 10:02:43;;;;;;;4.20;2.53;;;21.50;92.70;;;;;;4986929;28;20068;-51
2023/07/01 10:05:09;;;;;;;6.15;2.63;;;21.70;93.80;;;;;;4987061;28;20048;-50
2023/07/01 10:07:34;;;;;;;4.65;2.63;;;21.80;94.10;;;;;;4985796;28;20015;-50
2023/07/01 10:10:00;;;;;;;7.15;2.80;;;21.70;93.40;;;;;;4986772;28;20026;-51
2023/07/01 10:12:27;;;;;;;7.35;2.83;;;21.70;93.30;;;;;;4964298;28;20396;-51
2023/07/01 10:14:54;;;;;;;5.15;3.00;;;21.60;94.20;;;;;;4985751;28;20014;-51
2023/07/01 10:17:19;;;;;;;6.50;2.80;;;21.50;95.00;;;;;;4970395;28;20018;-49
2023/07/01 10:19:46;;;;;;;5.03;2.40;;;21.50;93.90;;;;;;4971645;28;20503;-50
2023/07/01 10:22:26;;;;;;;4.75;2.13;;;21.50;95.00;;;;;;4989202;28;20019;-51
2023/07/01 10:25:03;;;;;;;24.48;3.33;;;21.60;94.90;;;;;;4989657;28;20113;-50
2023/07/01 10:27:59;;;;;;;5.07;2.50;;;21.70;94.60;;;;;;4970908;28;20019;-48
2023/07/01 10:30:25;;;;;;;5.85;2.70;;;21.60;93.60;;;;;;4996064;28;20041;-50
2023/07/01 10:32:51;;;;;;;7.40;2.53;;;21.70;94.40;;;;;;4989554;28;20019;-47
2023/07/01 10:35:17;;;;;;;4.10;2.47;;;21.70;93.90;;;;;;4989652;28;20026;-51
2023/07/01 10:38:03;;;;;;;4.75;2.38;;;21.70;94.00;;;;;;4988742;28;20101;-49
2023/07/01 10:40:29;;;;;;;4.35;3.10;;;21.50;94.20;;;;;;4988836;28;20019;-51
2023/07/01 10:43:22;;;;;;;6.32;2.88;;;21.50;94.00;;;;;;4989568;28;20491;-48
2023/07/01 10:46:03;;;;;;;5.22;2.90;;;21.50;94.20;;;;;;5022802;28;20022;-51
2023/07/01 10:48:28;;;;;;;5.03;3.08;;;21.70;93.60;;;;;;4988228;28;20027;-48
2023/07/01 10:51:02;;;;;;;8.35;3.08;;;22.20;93.10;;;;;;4989783;28;20428;-50
2023/07/01 10:53:29;;;;;;;7.97;3.20;;;22.50;93.00;;;;;;4989458;28;20113;-51
2023/07/01 10:56:12;;;;;;;6.25;2.90;;;22.60;92.60;;;;;;4972042;28;20021;-50
2023/07/01 10:58:38;;;;;;;7.32;2.72;;;22.60;92.50;;;;;;4989344;28;20050;-51
2023/07/01 11:01:03;;;;;;;4.07;2.67;;;22.80;92.40;;;;;;4989401;28;20061;-50
2023/07/01 11:03:35;;;;;;;5.63;2.95;;;22.60;91.60;;;;;;4972138;28;20023;-51
2023/07/01 11:06:11;;;;;;;4.20;2.90;;;22.60;92.00;;;;;;4989819;28;20022;-50
2023/07/01 11:09:03;;;;;;;7.13;2.95;;;22.60;91.90;;;;;;4989965;28;20030;-50
2023/07/01 11:11:29;;;;;;;6.00;2.85;;;22.70;91.10;;;;;;4985411;28;20402;-49
2023/07/01 11:14:06;;;;;;;9.27;3.20;;;22.80;91.10;;;;;;4987914;28;20563;-50
2023/07/01 11:16:33;;;;;;;5.43;2.80;;;22.90;91.30;;;;;;4984625;28;20026;-49
2023/07/01 11:19:03;;;;;;;7.85;3.10;;;22.80;92.00;;;;;;4980503;28;20030;-48
2023/07/01 11:21:30;;;;;;;5.28;2.30;;;22.60;91.80;;;;;;4988709;28;20022;-49
2023/07/01 11:23:55;;;;;;;4.50;2.53;;;22.60;91.80;;;;;;4989099;28;20030;-50
2023/07/01 11:26:26;;;;;;;7.20;3.17;;;22.50;92.30;;;;;;4973710;28;20023;-50
2023/07/01 11:28:52;;;;;;;6.72;3.05;;;22.40;91.90;;;;;;4966182;28;20038;-49
2023/07/01 11:31:22;;;;;;;6.70;3.47;;;22.20;92.40;;;;;;4989648;28;20041;-50
2023/07/01 11:33:50;;;;;;;8.93;2.85;;;22.10;92.30;;;;;;4989910;28;20117;-49
2023/07/01 11:36:17;;;;;;;3.65;2.70;;;22.20;93.00;;;;;;4989252;28;20498;-51
2023/07/01 11:38:48;;;;;;;3.40;2.60;;;22.40;92.90;;;;;;4971761;28;20038;-49
2023/07/01 11:41:15;;;;;;;;;;;22.60;92.80;;;;;;4990056;28;20030;-48
2023/07/01 11:43:40;;;;;;;5.53;2.70;;;22.70;92.30;;;;;;4989248;28;19909;-48
2023/07/01 11:46:06;;;;;;;4.50;2.90;;;22.60;92.70;;;;;;4989234;28;20033;-49
2023/07/01 11:48:32;;;;;;;5.95;2.70;;;22.50;93.10;;;;;;4988981;28;20026;-49
2023/07/01 11:50:58;;;;;;;4.15;2.75;;;22.40;93.60;;;;;;4989434;28;20503;-50
2023/07/01 11:53:26;;;;;;;5.05;2.85;;;22.10;93.60;;;;;;4989237;28;20030;-50
2023/07/01 11:55:52;;;;;;;8.32;2.35;;;21.80;93.60;;;;;;4954566;28;20484;-50
2023/07/01 11:58:32;;;;;;;5.90;2.85;;;21.60;93.90;;;;;;4969152;28;20027;-48
2023/07/01 12:00:58;;;;;;;8.63;3.00;;;21.40;94.80;;;;;;4969960;28;20019;-50
2023/07/01 12:03:30;;;;;;;4.65;2.58;;;21.40;95.00;;;;;;4969347;28;20492;-49
2023/07/01 12:05:56;;;;;;;4.43;2.70;;;21.40;95.30;;;;;;4972163;28;20423;-51
2023/07/01 12:08:21;;;;;;;6.72;3.42;;;21.40;95.20;;;;;;4969297;28;20073;-50
2023/07/01 12:10:47;;;;;;;6.30;2.90;;;21.30;94.70;;;;;;4969646;28;20070;-49
2023/07/01 12:13:31;;;;;;;3.53;2.35;;;21.30;94.60;;;;;;4969468;28;20038;-48
2023/07/01 12:15:58;;;;;;;5.85;2.60;;;21.10;95.10;;;;;;4969698;28;20383;-51
2023/07/01 12:18:29;;;;;;;4.28;2.67;;;21.10;95.60;;;;;;4951538;28;20023;-48
2023/07/01 12:20:55;;;;;;;5.00;2.78;;;21.10;95.60;;;;;;4970085;28;20080;-47
2023/07/01 12:23:22;;;;;;;5.78;2.83;;;21.00;95.50;;;;;;4969379;28;20037;-51
2023/07/01 12:25:47;;;;;;;5.60;2.88;;;20.90;96.20;;;;;;4969559;28;20149;-48
2023/07/01 12:28:13;;;;;;;4.82;2.63;;;20.90;96.20;;;;;;4968925;28;20106;-49
2023/07/01 12:30:38;;;;;;;10.07;3.05;;;20.90;96.70;;;;;;4969236;28;20476;-48
2023/07/01 12:33:04;;;;;;;5.38;2.95;;;20.80;96.90;;;;;;4969547;28;20106;-49
2023/07/01 12:35:29;;;;;;;4.75;2.78;;;20.80;97.20;;;;;;4969361;28;20027;-47
2023/07/01 12:37:58;;;;;;;8.95;3.70;;;20.90;96.80;;;;;;4968777;28;20057;-51
2023/07/01 12:40:27;;;;;;;3.67;2.60;;;20.80;96.70;;;;;;4968991;28;20026;-51
2023/07/01 12:42:53;;;;;;;6.68;3.00;;;20.70;97.00;;;;;;4969105;28;20027;-51
2023/07/01 12:45:20;;;;;;;6.78;3.10;;;20.60;97.00;;;;;;4969373;28;20019;-50
2023/07/01 12:47:45;;;;;;;4.45;3.17;;;20.60;97.60;;;;;;4968496;28;20038;-51